This is the latest recevied weather packets stored in our database for station/object BAGASKAR. If no packets are shown the sender has not sent any weather packets the latest 10 day(s).
| Time | Temp. | Humidity | Pressure | Rain* | Wind** | Luminosity | Snow |
|---|---|---|---|---|---|---|---|
| 1777634819 | 10° C | 82% | 1019.9 hPa | - | - | - | - |
| 1777633619 | 9.44° C | 83% | 1020 hPa | - | - | - | - |
| 1777632418 | 10° C | 81% | 1020.1 hPa | - | - | - | - |
| 1777631219 | 10° C | 80% | 1020.3 hPa | - | - | - | - |
| 1777630018 | 10° C | 82% | 1020.4 hPa | - | - | - | - |
| 1777628819 | 10.56° C | 80% | 1020.5 hPa | - | - | - | - |
| 1777627618 | 10.56° C | 79% | 1020.7 hPa | - | - | - | - |
| 1777626418 | 10.56° C | 82% | 1020.9 hPa | - | - | - | - |
| 1777625218 | 10° C | 80% | 1021 hPa | - | - | - | - |
| 1777624018 | 10.56° C | 81% | 1021.1 hPa | - | - | - | - |
| 1777622820 | 9.44° C | 86% | 1021.1 hPa | - | - | - | - |
| 1777621618 | 10° C | 86% | 1021.1 hPa | - | - | - | - |
| 1777620418 | 9.44° C | 88% | 1021.3 hPa | - | - | - | - |
| 1777619218 | 9.44° C | 90% | 1021.4 hPa | - | - | - | - |
| 1777618018 | 9.44° C | 85% | 1021.3 hPa | - | - | - | - |
| 1777616819 | 10° C | 80% | 1021.2 hPa | - | - | - | - |
| 1777615618 | 10° C | 80% | 1021.3 hPa | - | - | - | - |
| 1777614417 | 9.44° C | 83% | 1021.3 hPa | - | - | - | - |
| 1777613217 | 8.89° C | 85% | 1021.5 hPa | - | - | - | - |
| 1777612017 | 8.33° C | 89% | 1021.4 hPa | - | - | - | - |
| 1777610817 | 7.78° C | 94% | 1021.4 hPa | - | - | - | - |
| 1777609618 | 7.22° C | 97% | 1021.5 hPa | - | - | - | - |
| 1777608418 | 6.67° C | 100% | 1021.6 hPa | - | - | - | - |
| 1777607217 | 7.22° C | 100% | 1021.5 hPa | - | - | - | - |
| 1777606018 | 6.67° C | 100% | 1021.5 hPa | - | - | - | - |
* Rain since midnight (hover to see other rain measurements)
** Current wind speed in m/s (hover to see current wind gust speed)